sensor_id;sensor_type;location;lat;lon;timestamp;P1;durP1;ratioP1;P2;durP2;ratioP2
7523;SDS011;3803;51.666;7.630;2023-05-29T00:00:04;7.40;;;4.70;;
7523;SDS011;3803;51.666;7.630;2023-05-29T00:00:30;9.07;;;4.80;;
7523;SDS011;3803;51.666;7.630;2023-05-29T00:00:52;8.98;;;4.70;;
7523;SDS011;3803;51.666;7.630;2023-05-29T00:01:12;9.57;;;4.60;;
7523;SDS011;3803;51.666;7.630;2023-05-29T00:01:33;8.23;;;4.40;;
7523;SDS011;3803;51.666;7.630;2023-05-29T00:01:56;7.88;;;4.55;;
7523;SDS011;3803;51.666;7.630;2023-05-29T00:02:16;7.33;;;4.63;;
7523;SDS011;3803;51.666;7.630;2023-05-29T00:02:37;7.10;;;4.70;;
7523;SDS011;3803;51.666;7.630;2023-05-29T00:02:58;7.13;;;4.47;;
7523;SDS011;3803;51.666;7.630;2023-05-29T00:03:19;8.18;;;4.88;;
7523;SDS011;3803;51.666;7.630;2023-05-29T00:03:40;7.85;;;4.75;;
7523;SDS011;3803;51.666;7.630;2023-05-29T00:04:00;8.18;;;4.70;;
7523;SDS011;3803;51.666;7.630;2023-05-29T00:04:21;7.37;;;4.70;;
7523;SDS011;3803;51.666;7.630;2023-05-29T00:04:42;14.77;;;5.10;;
7523;SDS011;3803;51.666;7.630;2023-05-29T00:05:02;14.30;;;4.90;;
7523;SDS011;3803;51.666;7.630;2023-05-29T00:05:23;14.43;;;4.63;;
7523;SDS011;3803;51.666;7.630;2023-05-29T00:05:44;6.05;;;4.30;;
7523;SDS011;3803;51.666;7.630;2023-05-29T00:06:05;6.57;;;4.40;;
7523;SDS011;3803;51.666;7.630;2023-05-29T00:06:26;6.35;;;4.60;;
7523;SDS011;3803;51.666;7.630;2023-05-29T00:06:47;7.30;;;4.60;;
7523;SDS011;3803;51.666;7.630;2023-05-29T00:07:07;6.70;;;4.30;;
7523;SDS011;3803;51.666;7.630;2023-05-29T00:07:29;7.22;;;4.30;;
7523;SDS011;3803;51.666;7.630;2023-05-29T00:07:50;7.30;;;4.43;;
7523;SDS011;3803;51.666;7.630;2023-05-29T00:08:11;7.90;;;4.57;;
7523;SDS011;3803;51.666;7.630;2023-05-29T00:08:31;6.85;;;4.35;;
7523;SDS011;3803;51.666;7.630;2023-05-29T00:08:52;5.68;;;4.28;;
7523;SDS011;3803;51.666;7.630;2023-05-29T00:09:13;6.25;;;4.38;;
7523;SDS011;3803;51.666;7.630;2023-05-29T00:09:34;6.82;;;4.55;;
7523;SDS011;3803;51.666;7.630;2023-05-29T00:09:54;7.00;;;4.50;;
7523;SDS011;3803;51.666;7.630;2023-05-29T00:10:15;6.45;;;4.30;;
7523;SDS011;3803;51.666;7.630;2023-05-29T00:10:36;6.15;;;4.13;;
7523;SDS011;3803;51.666;7.630;2023-05-29T00:10:57;8.00;;;4.50;;
7523;SDS011;3803;51.666;7.630;2023-05-29T00:11:18;7.47;;;4.47;;
7523;SDS011;3803;51.666;7.630;2023-05-29T00:11:39;6.75;;;4.40;;
7523;SDS011;3803;51.666;7.630;2023-05-29T00:12:00;4.60;;;3.95;;
7523;SDS011;3803;51.666;7.630;2023-05-29T00:12:21;5.20;;;4.30;;
7523;SDS011;3803;51.666;7.630;2023-05-29T00:12:43;5.57;;;4.40;;
7523;SDS011;3803;51.666;7.630;2023-05-29T00:13:03;5.72;;;4.40;;
7523;SDS011;3803;51.666;7.630;2023-05-29T00:13:24;6.63;;;4.50;;
7523;SDS011;3803;51.666;7.630;2023-05-29T00:13:45;7.47;;;4.78;;
7523;SDS011;3803;51.666;7.630;2023-05-29T00:14:06;8.35;;;4.68;;
7523;SDS011;3803;51.666;7.630;2023-05-29T00:14:27;7.40;;;4.68;;
7523;SDS011;3803;51.666;7.630;2023-05-29T00:14:48;6.93;;;4.72;;
7523;SDS011;3803;51.666;7.630;2023-05-29T00:15:09;7.70;;;5.10;;
7523;SDS011;3803;51.666;7.630;2023-05-29T00:15:31;7.78;;;4.90;;
7523;SDS011;3803;51.666;7.630;2023-05-29T00:15:51;7.70;;;4.90;;
7523;SDS011;3803;51.666;7.630;2023-05-29T00:16:12;6.72;;;4.80;;
7523;SDS011;3803;51.666;7.630;2023-05-29T00:16:33;7.60;;;4.80;;
7523;SDS011;3803;51.666;7.630;2023-05-29T00:16:54;7.28;;;4.60;;
7523;SDS011;3803;51.666;7.630;2023-05-29T00:17:16;6.95;;;4.72;;
7523;SDS011;3803;51.666;7.630;2023-05-29T00:17:37;7.43;;;4.75;;
7523;SDS011;3803;51.666;7.630;2023-05-29T00:17:59;7.25;;;4.72;;
7523;SDS011;3803;51.666;7.630;2023-05-29T00:18:21;8.10;;;4.65;;
7523;SDS011;3803;51.666;7.630;2023-05-29T00:18:43;7.68;;;4.68;;
7523;SDS011;3803;51.666;7.630;2023-05-29T00:19:06;7.82;;;4.60;;
7523;SDS011;3803;51.666;7.630;2023-05-29T00:19:29;7.55;;;4.70;;
7523;SDS011;3803;51.666;7.630;2023-05-29T00:19:49;7.87;;;4.73;;
7523;SDS011;3803;51.666;7.630;2023-05-29T00:20:10;6.38;;;4.60;;
7523;SDS011;3803;51.666;7.630;2023-05-29T00:20:32;8.20;;;4.72;;
7523;SDS011;3803;51.666;7.630;2023-05-29T00:20:54;8.63;;;4.85;;
7523;SDS011;3803;51.666;7.630;2023-05-29T00:21:15;9.77;;;5.13;;
7523;SDS011;3803;51.666;7.630;2023-05-29T00:21:37;7.82;;;5.00;;
7523;SDS011;3803;51.666;7.630;2023-05-29T00:21:58;7.95;;;5.00;;
7523;SDS011;3803;51.666;7.630;2023-05-29T00:22:18;7.50;;;4.90;;
7523;SDS011;3803;51.666;7.630;2023-05-29T00:22:39;8.10;;;5.10;;
7523;SDS011;3803;51.666;7.630;2023-05-29T00:23:00;6.82;;;4.50;;
7523;SDS011;3803;51.666;7.630;2023-05-29T00:23:26;6.50;;;4.32;;
7523;SDS011;3803;51.666;7.630;2023-05-29T00:23:47;5.57;;;4.22;;
7523;SDS011;3803;51.666;7.630;2023-05-29T00:24:07;6.10;;;4.60;;
7523;SDS011;3803;51.666;7.630;2023-05-29T00:24:28;7.90;;;4.80;;
7523;SDS011;3803;51.666;7.630;2023-05-29T00:24:49;7.93;;;5.10;;
7523;SDS011;3803;51.666;7.630;2023-05-29T00:25:09;7.50;;;5.00;;
7523;SDS011;3803;51.666;7.630;2023-05-29T00:25:30;6.10;;;4.70;;
7523;SDS011;3803;51.666;7.630;2023-05-29T00:25:51;6.18;;;4.47;;
7523;SDS011;3803;51.666;7.630;2023-05-29T00:26:12;5.97;;;4.40;;
7523;SDS011;3803;51.666;7.630;2023-05-29T00:26:33;6.57;;;4.45;;
7523;SDS011;3803;51.666;7.630;2023-05-29T00:26:55;7.45;;;4.68;;
7523;SDS011;3803;51.666;7.630;2023-05-29T00:27:16;7.47;;;4.70;;
7523;SDS011;3803;51.666;7.630;2023-05-29T00:27:36;7.37;;;4.80;;
7523;SDS011;3803;51.666;7.630;2023-05-29T00:27:57;7.32;;;4.85;;
7523;SDS011;3803;51.666;7.630;2023-05-29T00:28:18;6.88;;;4.90;;
7523;SDS011;3803;51.666;7.630;2023-05-29T00:28:39;8.00;;;4.85;;
7523;SDS011;3803;51.666;7.630;2023-05-29T00:28:59;7.63;;;4.68;;
7523;SDS011;3803;51.666;7.630;2023-05-29T00:29:20;8.30;;;4.87;;
7523;SDS011;3803;51.666;7.630;2023-05-29T00:29:42;8.40;;;4.93;;
7523;SDS011;3803;51.666;7.630;2023-05-29T00:30:03;8.60;;;4.88;;
7523;SDS011;3803;51.666;7.630;2023-05-29T00:30:24;9.07;;;5.20;;
7523;SDS011;3803;51.666;7.630;2023-05-29T00:30:45;9.40;;;5.40;;
7523;SDS011;3803;51.666;7.630;2023-05-29T00:31:05;9.70;;;5.20;;
7523;SDS011;3803;51.666;7.630;2023-05-29T00:31:26;8.60;;;4.60;;
7523;SDS011;3803;51.666;7.630;2023-05-29T00:31:48;7.47;;;4.20;;
7523;SDS011;3803;51.666;7.630;2023-05-29T00:32:09;7.57;;;4.57;;
7523;SDS011;3803;51.666;7.630;2023-05-29T00:32:30;7.18;;;4.50;;
7523;SDS011;3803;51.666;7.630;2023-05-29T00:32:51;7.00;;;4.60;;
7523;SDS011;3803;51.666;7.630;2023-05-29T00:33:13;6.60;;;4.60;;
7523;SDS011;3803;51.666;7.630;2023-05-29T00:33:34;7.00;;;4.70;;
7523;SDS011;3803;51.666;7.630;2023-05-29T00:33:54;7.50;;;4.80;;
7523;SDS011;3803;51.666;7.630;2023-05-29T00:34:15;7.00;;;4.53;;
7523;SDS011;3803;51.666;7.630;2023-05-29T00:34:36;6.50;;;4.28;;
7523;SDS011;3803;51.666;7.630;2023-05-29T00:34:57;7.97;;;4.40;;
7523;SDS011;3803;51.666;7.630;2023-05-29T00:35:17;8.47;;;4.40;;
7523;SDS011;3803;51.666;7.630;2023-05-29T00:35:38;8.40;;;4.75;;
7523;SDS011;3803;51.666;7.630;2023-05-29T00:35:59;7.63;;;4.60;;
7523;SDS011;3803;51.666;7.630;2023-05-29T00:36:19;7.57;;;4.70;;
7523;SDS011;3803;51.666;7.630;2023-05-29T00:36:40;8.10;;;4.57;;
7523;SDS011;3803;51.666;7.630;2023-05-29T00:37:01;10.60;;;4.70;;
7523;SDS011;3803;51.666;7.630;2023-05-29T00:37:22;11.23;;;4.72;;
7523;SDS011;3803;51.666;7.630;2023-05-29T00:37:43;10.90;;;4.75;;
7523;SDS011;3803;51.666;7.630;2023-05-29T00:38:04;8.60;;;4.80;;
7523;SDS011;3803;51.666;7.630;2023-05-29T00:38:24;8.77;;;4.65;;
7523;SDS011;3803;51.666;7.630;2023-05-29T00:38:45;9.00;;;4.80;;
7523;SDS011;3803;51.666;7.630;2023-05-29T00:39:06;8.87;;;4.67;;
7523;SDS011;3803;51.666;7.630;2023-05-29T00:39:27;8.55;;;4.65;;
7523;SDS011;3803;51.666;7.630;2023-05-29T00:39:48;9.40;;;4.70;;
7523;SDS011;3803;51.666;7.630;2023-05-29T00:40:09;9.50;;;4.50;;
7523;SDS011;3803;51.666;7.630;2023-05-29T00:40:31;9.35;;;4.65;;
7523;SDS011;3803;51.666;7.630;2023-05-29T00:40:52;8.07;;;4.30;;
7523;SDS011;3803;51.666;7.630;2023-05-29T00:41:14;10.10;;;4.70;;
7523;SDS011;3803;51.666;7.630;2023-05-29T00:41:35;11.07;;;4.78;;
7523;SDS011;3803;51.666;7.630;2023-05-29T00:41:56;9.70;;;4.70;;
7523;SDS011;3803;51.666;7.630;2023-05-29T00:42:17;7.22;;;4.40;;
7523;SDS011;3803;51.666;7.630;2023-05-29T00:42:38;7.35;;;4.60;;
7523;SDS011;3803;51.666;7.630;2023-05-29T00:42:59;9.75;;;4.90;;
7523;SDS011;3803;51.666;7.630;2023-05-29T00:43:19;11.33;;;5.03;;
7523;SDS011;3803;51.666;7.630;2023-05-29T00:43:40;10.20;;;4.72;;
7523;SDS011;3803;51.666;7.630;2023-05-29T00:44:01;8.70;;;4.60;;
7523;SDS011;3803;51.666;7.630;2023-05-29T00:44:22;8.80;;;4.47;;
7523;SDS011;3803;51.666;7.630;2023-05-29T00:44:44;10.13;;;4.50;;
7523;SDS011;3803;51.666;7.630;2023-05-29T00:45:04;9.80;;;4.70;;
7523;SDS011;3803;51.666;7.630;2023-05-29T00:45:26;11.27;;;4.68;;
7523;SDS011;3803;51.666;7.630;2023-05-29T00:45:47;12.13;;;4.97;;
7523;SDS011;3803;51.666;7.630;2023-05-29T00:46:08;13.15;;;4.90;;
7523;SDS011;3803;51.666;7.630;2023-05-29T00:46:31;10.48;;;4.60;;
7523;SDS011;3803;51.666;7.630;2023-05-29T00:46:52;9.48;;;4.32;;
7523;SDS011;3803;51.666;7.630;2023-05-29T00:47:13;10.37;;;4.50;;
7523;SDS011;3803;51.666;7.630;2023-05-29T00:47:34;11.97;;;4.67;;
7523;SDS011;3803;51.666;7.630;2023-05-29T00:47:55;12.68;;;4.68;;
7523;SDS011;3803;51.666;7.630;2023-05-29T00:48:16;10.55;;;4.57;;
7523;SDS011;3803;51.666;7.630;2023-05-29T00:48:37;9.00;;;4.40;;
7523;SDS011;3803;51.666;7.630;2023-05-29T00:49:00;9.85;;;4.68;;
7523;SDS011;3803;51.666;7.630;2023-05-29T00:49:22;11.43;;;4.68;;
7523;SDS011;3803;51.666;7.630;2023-05-29T00:49:44;12.32;;;4.60;;
7523;SDS011;3803;51.666;7.630;2023-05-29T00:50:05;11.80;;;4.32;;
7523;SDS011;3803;51.666;7.630;2023-05-29T00:50:26;9.90;;;4.13;;
7523;SDS011;3803;51.666;7.630;2023-05-29T00:50:47;8.10;;;4.00;;
7523;SDS011;3803;51.666;7.630;2023-05-29T00:51:08;8.68;;;3.97;;
7523;SDS011;3803;51.666;7.630;2023-05-29T00:51:32;9.27;;;4.05;;
7523;SDS011;3803;51.666;7.630;2023-05-29T00:51:54;9.60;;;4.07;;
7523;SDS011;3803;51.666;7.630;2023-05-29T00:52:16;9.60;;;4.30;;
7523;SDS011;3803;51.666;7.630;2023-05-29T00:52:37;9.95;;;4.30;;
7523;SDS011;3803;51.666;7.630;2023-05-29T00:53:00;11.25;;;4.40;;
7523;SDS011;3803;51.666;7.630;2023-05-29T00:53:22;10.98;;;4.40;;
7523;SDS011;3803;51.666;7.630;2023-05-29T00:53:43;12.15;;;4.70;;
7523;SDS011;3803;51.666;7.630;2023-05-29T00:54:06;11.38;;;4.60;;
7523;SDS011;3803;51.666;7.630;2023-05-29T00:54:28;12.25;;;4.55;;
7523;SDS011;3803;51.666;7.630;2023-05-29T00:54:54;11.23;;;4.22;;
7523;SDS011;3803;51.666;7.630;2023-05-29T00:55:15;11.13;;;4.10;;
7523;SDS011;3803;51.666;7.630;2023-05-29T00:55:36;9.80;;;4.00;;
7523;SDS011;3803;51.666;7.630;2023-05-29T00:55:58;10.13;;;4.30;;
7523;SDS011;3803;51.666;7.630;2023-05-29T00:56:20;10.00;;;4.13;;
7523;SDS011;3803;51.666;7.630;2023-05-29T00:56:42;11.85;;;4.22;;
7523;SDS011;3803;51.666;7.630;2023-05-29T00:57:04;11.63;;;4.20;;
7523;SDS011;3803;51.666;7.630;2023-05-29T00:57:25;11.25;;;4.15;;
7523;SDS011;3803;51.666;7.630;2023-05-29T00:57:47;8.95;;;3.92;;
7523;SDS011;3803;51.666;7.630;2023-05-29T00:58:09;8.80;;;3.90;;
7523;SDS011;3803;51.666;7.630;2023-05-29T00:58:30;8.38;;;4.13;;
7523;SDS011;3803;51.666;7.630;2023-05-29T00:58:51;8.52;;;4.53;;
7523;SDS011;3803;51.666;7.630;2023-05-29T00:59:13;10.27;;;4.60;;
7523;SDS011;3803;51.666;7.630;2023-05-29T00:59:34;14.70;;;4.45;;
7523;SDS011;3803;51.666;7.630;2023-05-29T00:59:55;14.05;;;4.30;;
7523;SDS011;3803;51.666;7.630;2023-05-29T01:00:16;12.63;;;4.20;;
7523;SDS011;3803;51.666;7.630;2023-05-29T01:00:38;8.45;;;3.95;;
7523;SDS011;3803;51.666;7.630;2023-05-29T01:01:00;9.30;;;4.22;;
7523;SDS011;3803;51.666;7.630;2023-05-29T01:01:21;9.25;;;4.30;;
7523;SDS011;3803;51.666;7.630;2023-05-29T01:01:42;9.52;;;4.45;;
7523;SDS011;3803;51.666;7.630;2023-05-29T01:02:03;9.18;;;4.30;;
7523;SDS011;3803;51.666;7.630;2023-05-29T01:02:24;8.40;;;4.20;;
7523;SDS011;3803;51.666;7.630;2023-05-29T01:02:45;7.80;;;4.13;;
7523;SDS011;3803;51.666;7.630;2023-05-29T01:03:07;8.88;;;4.25;;
7523;SDS011;3803;51.666;7.630;2023-05-29T01:03:28;11.63;;;4.53;;
7523;SDS011;3803;51.666;7.630;2023-05-29T01:03:49;11.73;;;4.70;;
7523;SDS011;3803;51.666;7.630;2023-05-29T01:04:13;11.43;;;4.80;;
7523;SDS011;3803;51.666;7.630;2023-05-29T01:04:35;10.77;;;4.55;;
7523;SDS011;3803;51.666;7.630;2023-05-29T01:04:56;11.07;;;4.47;;
7523;SDS011;3803;51.666;7.630;2023-05-29T01:05:17;10.10;;;4.47;;
7523;SDS011;3803;51.666;7.630;2023-05-29T01:05:39;10.38;;;4.20;;
7523;SDS011;3803;51.666;7.630;2023-05-29T01:06:01;10.85;;;4.10;;
7523;SDS011;3803;51.666;7.630;2023-05-29T01:06:24;11.95;;;3.92;;
7523;SDS011;3803;51.666;7.630;2023-05-29T01:06:46;10.60;;;4.25;;
7523;SDS011;3803;51.666;7.630;2023-05-29T01:07:06;10.40;;;4.80;;
7523;SDS011;3803;51.666;7.630;2023-05-29T01:07:29;9.52;;;4.88;;
7523;SDS011;3803;51.666;7.630;2023-05-29T01:07:50;11.02;;;4.95;;
7523;SDS011;3803;51.666;7.630;2023-05-29T01:08:11;14.43;;;4.72;;
7523;SDS011;3803;51.666;7.630;2023-05-29T01:08:32;16.23;;;4.90;;
7523;SDS011;3803;51.666;7.630;2023-05-29T01:08:53;14.13;;;4.72;;
7523;SDS011;3803;51.666;7.630;2023-05-29T01:09:14;10.63;;;4.57;;
7523;SDS011;3803;51.666;7.630;2023-05-29T01:09:37;9.30;;;4.30;;
7523;SDS011;3803;51.666;7.630;2023-05-29T01:09:59;8.65;;;4.18;;
7523;SDS011;3803;51.666;7.630;2023-05-29T01:10:21;9.75;;;4.32;;
7523;SDS011;3803;51.666;7.630;2023-05-29T01:10:42;10.45;;;4.28;;
7523;SDS011;3803;51.666;7.630;2023-05-29T01:11:10;12.30;;;4.20;;
7523;SDS011;3803;51.666;7.630;2023-05-29T01:11:50;14.07;;;4.75;;
7523;SDS011;3803;51.666;7.630;2023-05-29T01:13:38;12.80;;;4.70;;
7523;SDS011;3803;51.666;7.630;2023-05-29T01:14:05;12.15;;;4.18;;
7523;SDS011;3803;51.666;7.630;2023-05-29T01:14:36;11.90;;;4.10;;
7523;SDS011;3803;51.666;7.630;2023-05-29T01:15:21;11.50;;;4.30;;
7523;SDS011;3803;51.666;7.630;2023-05-29T01:16:59;9.82;;;4.30;;
7523;SDS011;3803;51.666;7.630;2023-05-29T01:17:24;10.63;;;4.60;;
7523;SDS011;3803;51.666;7.630;2023-05-29T01:18:50;9.70;;;4.00;;
7523;SDS011;3803;51.666;7.630;2023-05-29T01:20:08;9.90;;;4.00;;
7523;SDS011;3803;51.666;7.630;2023-05-29T01:22:23;9.90;;;3.92;;
7523;SDS011;3803;51.666;7.630;2023-05-29T01:23:34;8.32;;;3.90;;
7523;SDS011;3803;51.666;7.630;2023-05-29T01:24:14;10.07;;;4.20;;
7523;SDS011;3803;51.666;7.630;2023-05-29T01:24:48;11.45;;;4.00;;
7523;SDS011;3803;51.666;7.630;2023-05-29T01:27:07;11.88;;;4.30;;
7523;SDS011;3803;51.666;7.630;2023-05-29T01:27:31;11.35;;;4.10;;
7523;SDS011;3803;51.666;7.630;2023-05-29T01:27:52;12.18;;;4.00;;
7523;SDS011;3803;51.666;7.630;2023-05-29T01:28:17;9.60;;;3.90;;
7523;SDS011;3803;51.666;7.630;2023-05-29T01:28:42;8.90;;;3.55;;
7523;SDS011;3803;51.666;7.630;2023-05-29T01:29:07;9.07;;;3.70;;
7523;SDS011;3803;51.666;7.630;2023-05-29T01:29:34;10.98;;;4.10;;
7523;SDS011;3803;51.666;7.630;2023-05-29T01:29:55;10.13;;;4.22;;
7523;SDS011;3803;51.666;7.630;2023-05-29T01:30:18;10.10;;;3.90;;
7523;SDS011;3803;51.666;7.630;2023-05-29T01:30:40;10.27;;;3.70;;
7523;SDS011;3803;51.666;7.630;2023-05-29T01:31:02;10.13;;;3.55;;
7523;SDS011;3803;51.666;7.630;2023-05-29T01:31:25;10.10;;;3.50;;
7523;SDS011;3803;51.666;7.630;2023-05-29T01:31:47;9.63;;;3.60;;
7523;SDS011;3803;51.666;7.630;2023-05-29T01:32:10;11.13;;;4.13;;
7523;SDS011;3803;51.666;7.630;2023-05-29T01:32:32;11.45;;;4.30;;
7523;SDS011;3803;51.666;7.630;2023-05-29T01:32:52;13.60;;;4.60;;
7523;SDS011;3803;51.666;7.630;2023-05-29T01:33:14;14.05;;;4.43;;
7523;SDS011;3803;51.666;7.630;2023-05-29T01:33:39;11.07;;;3.67;;
7523;SDS011;3803;51.666;7.630;2023-05-29T01:34:01;10.93;;;3.67;;
7523;SDS011;3803;51.666;7.630;2023-05-29T01:34:21;9.35;;;3.63;;
7523;SDS011;3803;51.666;7.630;2023-05-29T01:34:42;9.45;;;3.90;;
7523;SDS011;3803;51.666;7.630;2023-05-29T01:35:03;9.40;;;3.87;;
7523;SDS011;3803;51.666;7.630;2023-05-29T01:35:25;12.10;;;4.22;;
7523;SDS011;3803;51.666;7.630;2023-05-29T01:35:48;12.57;;;4.30;;
7523;SDS011;3803;51.666;7.630;2023-05-29T01:36:09;11.48;;;4.03;;
7523;SDS011;3803;51.666;7.630;2023-05-29T01:36:31;11.32;;;3.90;;
7523;SDS011;3803;51.666;7.630;2023-05-29T01:36:52;11.65;;;4.18;;
7523;SDS011;3803;51.666;7.630;2023-05-29T01:37:13;11.85;;;4.47;;
7523;SDS011;3803;51.666;7.630;2023-05-29T01:37:34;10.93;;;4.32;;
7523;SDS011;3803;51.666;7.630;2023-05-29T01:37:55;11.48;;;4.15;;
7523;SDS011;3803;51.666;7.630;2023-05-29T01:38:16;12.10;;;4.25;;
7523;SDS011;3803;51.666;7.630;2023-05-29T01:38:37;11.88;;;4.38;;
7523;SDS011;3803;51.666;7.630;2023-05-29T01:38:58;11.63;;;4.60;;
7523;SDS011;3803;51.666;7.630;2023-05-29T01:39:20;13.40;;;4.55;;
7523;SDS011;3803;51.666;7.630;2023-05-29T01:39:41;13.32;;;4.38;;
7523;SDS011;3803;51.666;7.630;2023-05-29T01:40:02;13.25;;;4.20;;
7523;SDS011;3803;51.666;7.630;2023-05-29T01:40:24;12.85;;;4.05;;
7523;SDS011;3803;51.666;7.630;2023-05-29T01:40:46;11.70;;;4.10;;
7523;SDS011;3803;51.666;7.630;2023-05-29T01:41:08;10.02;;;3.88;;
7523;SDS011;3803;51.666;7.630;2023-05-29T01:41:29;9.45;;;3.90;;
7523;SDS011;3803;51.666;7.630;2023-05-29T01:41:52;10.32;;;3.90;;
7523;SDS011;3803;51.666;7.630;2023-05-29T01:42:14;9.25;;;3.92;;
7523;SDS011;3803;51.666;7.630;2023-05-29T01:42:35;9.35;;;4.03;;
7523;SDS011;3803;51.666;7.630;2023-05-29T01:42:56;12.73;;;4.30;;
7523;SDS011;3803;51.666;7.630;2023-05-29T01:43:17;13.90;;;4.78;;
7523;SDS011;3803;51.666;7.630;2023-05-29T01:43:37;14.20;;;4.65;;
7523;SDS011;3803;51.666;7.630;2023-05-29T01:43:59;10.32;;;4.28;;
7523;SDS011;3803;51.666;7.630;2023-05-29T01:44:20;11.70;;;4.10;;
7523;SDS011;3803;51.666;7.630;2023-05-29T01:44:43;12.18;;;4.20;;
7523;SDS011;3803;51.666;7.630;2023-05-29T01:45:09;12.68;;;4.03;;
7523;SDS011;3803;51.666;7.630;2023-05-29T01:45:32;13.00;;;3.97;;
7523;SDS011;3803;51.666;7.630;2023-05-29T01:45:53;10.80;;;4.00;;
7523;SDS011;3803;51.666;7.630;2023-05-29T01:46:15;11.73;;;4.05;;
7523;SDS011;3803;51.666;7.630;2023-05-29T01:46:38;12.32;;;4.60;;
7523;SDS011;3803;51.666;7.630;2023-05-29T01:47:03;11.88;;;4.35;;
7523;SDS011;3803;51.666;7.630;2023-05-29T01:47:24;8.95;;;4.13;;
7523;SDS011;3803;51.666;7.630;2023-05-29T01:47:46;12.50;;;4.30;;
7523;SDS011;3803;51.666;7.630;2023-05-29T01:48:07;14.75;;;4.90;;
7523;SDS011;3803;51.666;7.630;2023-05-29T01:48:28;16.73;;;5.53;;
7523;SDS011;3803;51.666;7.630;2023-05-29T01:48:50;15.73;;;5.55;;
7523;SDS011;3803;51.666;7.630;2023-05-29T01:49:13;13.00;;;4.43;;
7523;SDS011;3803;51.666;7.630;2023-05-29T01:49:35;10.70;;;4.10;;
7523;SDS011;3803;51.666;7.630;2023-05-29T01:49:57;11.00;;;4.05;;
7523;SDS011;3803;51.666;7.630;2023-05-29T01:50:18;10.90;;;4.05;;
7523;SDS011;3803;51.666;7.630;2023-05-29T01:50:39;11.55;;;4.20;;
7523;SDS011;3803;51.666;7.630;2023-05-29T01:51:04;13.07;;;4.20;;
7523;SDS011;3803;51.666;7.630;2023-05-29T01:51:24;14.00;;;4.35;;
7523;SDS011;3803;51.666;7.630;2023-05-29T01:51:45;14.55;;;4.57;;
7523;SDS011;3803;51.666;7.630;2023-05-29T01:52:06;13.00;;;4.40;;
7523;SDS011;3803;51.666;7.630;2023-05-29T01:52:27;12.20;;;4.22;;
7523;SDS011;3803;51.666;7.630;2023-05-29T01:52:48;11.50;;;3.80;;
7523;SDS011;3803;51.666;7.630;2023-05-29T01:53:08;10.50;;;3.87;;
7523;SDS011;3803;51.666;7.630;2023-05-29T01:53:30;10.65;;;4.07;;
7523;SDS011;3803;51.666;7.630;2023-05-29T01:53:50;10.70;;;4.10;;
7523;SDS011;3803;51.666;7.630;2023-05-29T01:54:11;12.70;;;4.20;;
7523;SDS011;3803;51.666;7.630;2023-05-29T01:54:32;13.07;;;4.10;;
7523;SDS011;3803;51.666;7.630;2023-05-29T01:54:53;15.23;;;4.30;;
7523;SDS011;3803;51.666;7.630;2023-05-29T01:55:14;15.80;;;4.72;;
7523;SDS011;3803;51.666;7.630;2023-05-29T01:55:34;16.03;;;4.90;;
7523;SDS011;3803;51.666;7.630;2023-05-29T01:55:55;15.77;;;4.53;;
7523;SDS011;3803;51.666;7.630;2023-05-29T01:56:16;12.82;;;4.03;;
7523;SDS011;3803;51.666;7.630;2023-05-29T01:56:37;13.77;;;4.40;;
7523;SDS011;3803;51.666;7.630;2023-05-29T01:56:59;12.05;;;4.65;;
7523;SDS011;3803;51.666;7.630;2023-05-29T01:57:23;14.18;;;4.70;;
7523;SDS011;3803;51.666;7.630;2023-05-29T01:57:45;13.32;;;4.45;;
7523;SDS011;3803;51.666;7.630;2023-05-29T01:58:07;15.30;;;4.95;;
7523;SDS011;3803;51.666;7.630;2023-05-29T01:58:28;14.00;;;5.00;;
7523;SDS011;3803;51.666;7.630;2023-05-29T01:58:50;12.90;;;4.72;;
7523;SDS011;3803;51.666;7.630;2023-05-29T01:59:11;11.13;;;4.30;;
7523;SDS011;3803;51.666;7.630;2023-05-29T01:59:33;11.18;;;4.40;;
7523;SDS011;3803;51.666;7.630;2023-05-29T01:59:55;11.60;;;4.35;;
7523;SDS011;3803;51.666;7.630;2023-05-29T02:00:16;12.13;;;4.68;;
7523;SDS011;3803;51.666;7.630;2023-05-29T02:00:41;10.68;;;4.32;;
7523;SDS011;3803;51.666;7.630;2023-05-29T02:01:02;11.98;;;4.53;;
7523;SDS011;3803;51.666;7.630;2023-05-29T02:01:26;12.70;;;4.65;;
7523;SDS011;3803;51.666;7.630;2023-05-29T02:01:47;11.98;;;4.40;;
7523;SDS011;3803;51.666;7.630;2023-05-29T02:02:08;12.60;;;4.30;;
7523;SDS011;3803;51.666;7.630;2023-05-29T02:02:30;11.60;;;3.90;;
7523;SDS011;3803;51.666;7.630;2023-05-29T02:02:51;14.35;;;4.40;;
7523;SDS011;3803;51.666;7.630;2023-05-29T02:03:11;15.65;;;4.40;;
7523;SDS011;3803;51.666;7.630;2023-05-29T02:03:33;15.43;;;4.40;;
7523;SDS011;3803;51.666;7.630;2023-05-29T02:03:54;13.88;;;4.20;;
7523;SDS011;3803;51.666;7.630;2023-05-29T02:04:15;10.82;;;4.28;;
7523;SDS011;3803;51.666;7.630;2023-05-29T02:04:35;10.00;;;4.20;;
7523;SDS011;3803;51.666;7.630;2023-05-29T02:04:56;10.32;;;3.90;;
7523;SDS011;3803;51.666;7.630;2023-05-29T02:05:17;10.47;;;3.77;;
7523;SDS011;3803;51.666;7.630;2023-05-29T02:05:38;10.63;;;4.00;;
7523;SDS011;3803;51.666;7.630;2023-05-29T02:05:59;11.10;;;4.20;;
7523;SDS011;3803;51.666;7.630;2023-05-29T02:06:20;14.65;;;4.80;;
7523;SDS011;3803;51.666;7.630;2023-05-29T02:06:41;15.10;;;4.80;;
7523;SDS011;3803;51.666;7.630;2023-05-29T02:07:02;15.82;;;4.60;;
7523;SDS011;3803;51.666;7.630;2023-05-29T02:07:23;14.63;;;4.40;;
7523;SDS011;3803;51.666;7.630;2023-05-29T02:07:44;12.80;;;4.28;;
7523;SDS011;3803;51.666;7.630;2023-05-29T02:08:05;11.93;;;4.50;;
7523;SDS011;3803;51.666;7.630;2023-05-29T02:08:27;13.07;;;4.70;;
7523;SDS011;3803;51.666;7.630;2023-05-29T02:08:47;14.93;;;5.35;;
7523;SDS011;3803;51.666;7.630;2023-05-29T02:09:08;13.25;;;5.03;;
7523;SDS011;3803;51.666;7.630;2023-05-29T02:09:30;13.90;;;4.88;;
7523;SDS011;3803;51.666;7.630;2023-05-29T02:09:51;13.50;;;4.55;;
7523;SDS011;3803;51.666;7.630;2023-05-29T02:10:11;14.52;;;4.47;;
7523;SDS011;3803;51.666;7.630;2023-05-29T02:10:32;13.20;;;4.40;;
7523;SDS011;3803;51.666;7.630;2023-05-29T02:10:53;13.10;;;4.50;;
7523;SDS011;3803;51.666;7.630;2023-05-29T02:11:14;12.50;;;4.65;;
7523;SDS011;3803;51.666;7.630;2023-05-29T02:11:35;11.97;;;4.60;;
7523;SDS011;3803;51.666;7.630;2023-05-29T02:11:55;13.00;;;4.57;;
7523;SDS011;3803;51.666;7.630;2023-05-29T02:12:16;15.48;;;4.78;;
7523;SDS011;3803;51.666;7.630;2023-05-29T02:12:37;16.60;;;4.80;;
7523;SDS011;3803;51.666;7.630;2023-05-29T02:12:58;15.20;;;4.50;;
7523;SDS011;3803;51.666;7.630;2023-05-29T02:13:18;12.30;;;4.50;;
7523;SDS011;3803;51.666;7.630;2023-05-29T02:13:39;11.93;;;4.20;;
7523;SDS011;3803;51.666;7.630;2023-05-29T02:14:00;11.93;;;4.25;;
7523;SDS011;3803;51.666;7.630;2023-05-29T02:14:22;14.57;;;4.55;;
7523;SDS011;3803;51.666;7.630;2023-05-29T02:14:46;15.23;;;4.88;;
7523;SDS011;3803;51.666;7.630;2023-05-29T02:15:07;13.68;;;4.55;;
7523;SDS011;3803;51.666;7.630;2023-05-29T02:15:28;13.07;;;4.50;;
7523;SDS011;3803;51.666;7.630;2023-05-29T02:15:49;13.63;;;4.60;;
7523;SDS011;3803;51.666;7.630;2023-05-29T02:16:10;14.45;;;4.47;;
7523;SDS011;3803;51.666;7.630;2023-05-29T02:16:31;12.20;;;4.20;;
7523;SDS011;3803;51.666;7.630;2023-05-29T02:16:54;12.05;;;4.15;;
7523;SDS011;3803;51.666;7.630;2023-05-29T02:17:16;13.13;;;4.50;;
7523;SDS011;3803;51.666;7.630;2023-05-29T02:17:36;13.13;;;4.50;;
7523;SDS011;3803;51.666;7.630;2023-05-29T02:17:57;13.53;;;4.33;;
7523;SDS011;3803;51.666;7.630;2023-05-29T02:18:18;12.13;;;4.00;;
7523;SDS011;3803;51.666;7.630;2023-05-29T02:18:39;12.20;;;4.20;;
7523;SDS011;3803;51.666;7.630;2023-05-29T02:19:01;13.40;;;4.55;;
7523;SDS011;3803;51.666;7.630;2023-05-29T02:19:22;13.38;;;4.70;;
7523;SDS011;3803;51.666;7.630;2023-05-29T02:19:45;11.98;;;4.40;;
7523;SDS011;3803;51.666;7.630;2023-05-29T02:20:06;12.75;;;4.40;;
7523;SDS011;3803;51.666;7.630;2023-05-29T02:20:27;15.35;;;4.40;;
7523;SDS011;3803;51.666;7.630;2023-05-29T02:20:48;16.95;;;4.50;;
7523;SDS011;3803;51.666;7.630;2023-05-29T02:21:15;13.85;;;4.30;;
7523;SDS011;3803;51.666;7.630;2023-05-29T02:21:40;11.93;;;4.50;;
7523;SDS011;3803;51.666;7.630;2023-05-29T02:22:01;11.85;;;4.40;;
7523;SDS011;3803;51.666;7.630;2023-05-29T02:22:23;10.55;;;4.40;;
7523;SDS011;3803;51.666;7.630;2023-05-29T02:22:43;12.23;;;4.33;;
7523;SDS011;3803;51.666;7.630;2023-05-29T02:23:06;15.95;;;4.75;;